Time;durP1;ratioP1;P1;durP2;ratioP2;P2;SDS_P1;SDS_P2;PMS_P1;PMS_P2;Temp;Humidity;BMP_temperature;BMP_pressure;BME280_temperature;BME280_humidity;BME280_pressure;Samples;Min_cycle;Max_cycle;Signal;HPM_P1;HPM_P2
2023/09/20 00:00:29;;;;;;;;;0.00;0.00;;;;;;;;5130065;27;8760;-75
2023/09/20 00:02:55;;;;;;;;;0.00;0.00;;;;;;;;5143860;27;10670;-75
2023/09/20 00:05:21;;;;;;;;;0.00;0.00;;;;;;;;5141598;27;8796;-75
2023/09/20 00:07:47;;;;;;;;;1.00;0.00;;;;;;;;5103058;27;8817;-75
2023/09/20 00:10:14;;;;;;;;;0.00;0.00;;;;;;;;5105150;28;9432;-75
2023/09/20 00:12:40;;;;;;;;;0.00;0.00;;;;;;;;5115193;27;9228;-75
2023/09/20 00:15:07;;;;;;;;;0.00;0.00;;;;;;;;5124089;28;9313;-75
2023/09/20 00:17:34;;;;;;;;;2.67;0.00;;;;;;;;5125629;27;9539;-75
2023/09/20 00:20:01;;;;;;;;;0.00;0.00;;;;;;;;5119307;28;10993;-75
2023/09/20 00:22:27;;;;;;;;;0.33;0.00;;;;;;;;5105017;28;9293;-75
2023/09/20 00:24:54;;;;;;;;;0.00;0.00;;;;;;;;5104156;28;9426;-75
2023/09/20 00:27:20;;;;;;;;;0.00;0.00;;;;;;;;5104412;28;8869;-74
2023/09/20 00:29:45;;;;;;;;;1.00;1.00;;;;;;;;5120702;28;9987;-75
2023/09/20 00:32:11;;;;;;;;;0.00;0.00;;;;;;;;5105139;28;8806;-75
2023/09/20 00:34:36;;;;;;;;;0.00;0.00;;;;;;;;5104456;28;9290;-75
2023/09/20 00:37:01;;;;;;;;;2.00;0.00;;;;;;;;5104908;28;8811;-75
2023/09/20 00:39:27;;;;;;;;;0.00;0.00;;;;;;;;5139514;27;8804;-75
2023/09/20 00:41:52;;;;;;;;;0.00;0.00;;;;;;;;5143302;27;8796;-75
2023/09/20 00:44:17;;;;;;;;;0.00;0.00;;;;;;;;5125180;27;8779;-75
2023/09/20 00:46:44;;;;;;;;;0.00;0.00;;;;;;;;5125048;27;8775;-75
2023/09/20 00:49:09;;;;;;;;;1.00;1.00;;;;;;;;5111428;27;8773;-75
2023/09/20 00:51:35;;;;;;;;;0.00;0.00;;;;;;;;5104481;28;9357;-75
2023/09/20 00:54:04;;;;;;;;;0.00;0.00;;;;;;;;5104758;28;8770;-75
2023/09/20 00:56:29;;;;;;;;;0.67;0.00;;;;;;;;5124350;27;8750;-75
2023/09/20 00:58:56;;;;;;;;;0.00;0.00;;;;;;;;5104776;28;9406;-75
2023/09/20 01:01:22;;;;;;;;;0.00;0.00;;;;;;;;5104563;28;8805;-75
2023/09/20 01:03:47;;;;;;;;;0.33;0.00;;;;;;;;5103782;28;9273;-75
2023/09/20 01:06:15;;;;;;;;;0.00;0.00;;;;;;;;5104521;28;9286;-75
2023/09/20 01:08:40;;;;;;;;;0.00;0.00;;;;;;;;5111307;28;8770;-75
2023/09/20 01:11:05;;;;;;;;;2.00;0.00;;;;;;;;5124508;27;9280;-75
2023/09/20 01:13:30;;;;;;;;;0.67;0.67;;;;;;;;5110320;27;8870;-75
2023/09/20 01:15:56;;;;;;;;;0.00;0.00;;;;;;;;5123408;28;8795;-75
2023/09/20 01:18:21;;;;;;;;;0.00;0.00;;;;;;;;5131325;27;8785;-75
2023/09/20 01:20:47;;;;;;;;;0.67;0.00;;;;;;;;5145273;27;8808;-74
2023/09/20 01:23:13;;;;;;;;;2.00;0.00;;;;;;;;5130057;27;8781;-75
2023/09/20 01:25:43;;;;;;;;;0.00;0.00;;;;;;;;5123235;27;9480;-75
2023/09/20 01:28:10;;;;;;;;;2.00;0.00;;;;;;;;5124500;27;8789;-75
2023/09/20 01:30:37;;;;;;;;;0.67;0.67;;;;;;;;5126461;27;9447;-75
2023/09/20 01:33:05;;;;;;;;;0.00;0.00;;;;;;;;5143437;27;9359;-75
2023/09/20 01:35:31;;;;;;;;;0.00;0.00;;;;;;;;5145121;27;9333;-75
2023/09/20 01:37:56;;;;;;;;;0.00;0.00;;;;;;;;5143631;27;10142;-75
2023/09/20 01:40:25;;;;;;;;;0.33;0.33;;;;;;;;5107002;28;9292;-75
2023/09/20 01:42:51;;;;;;;;;0.00;0.00;;;;;;;;5135215;27;8743;-75
2023/09/20 01:45:18;;;;;;;;;0.00;0.00;;;;;;;;5133660;27;9468;-75
2023/09/20 01:47:44;;;;;;;;;0.00;0.00;;;;;;;;5123771;27;10130;-75
2023/09/20 01:50:11;;;;;;;;;3.33;0.00;;;;;;;;5116406;28;9419;-75
2023/09/20 01:52:37;;;;;;;;;1.00;0.00;;;;;;;;5134005;27;9481;-76
2023/09/20 01:55:02;;;;;;;;;2.00;0.00;;;;;;;;5143794;27;9379;-74
2023/09/20 01:57:27;;;;;;;;;0.33;0.33;;;;;;;;5143800;27;9388;-75
2023/09/20 01:59:52;;;;;;;;;1.00;1.00;;;;;;;;5144259;27;8815;-74
2023/09/20 02:02:18;;;;;;;;;0.00;0.00;;;;;;;;5142006;27;8817;-75
2023/09/20 02:04:43;;;;;;;;;1.00;1.00;;;;;;;;5144429;27;8811;-75
2023/09/20 02:07:10;;;;;;;;;1.00;1.00;;;;;;;;5135364;27;8809;-75
2023/09/20 02:09:35;;;;;;;;;0.00;0.00;;;;;;;;5123865;27;8724;-75
2023/09/20 02:12:00;;;;;;;;;0.00;0.00;;;;;;;;5138647;27;9501;-75
2023/09/20 02:14:26;;;;;;;;;0.33;0.00;;;;;;;;5124687;27;8803;-75
2023/09/20 02:16:52;;;;;;;;;0.00;0.00;;;;;;;;5123245;27;8873;-75
2023/09/20 02:19:19;;;;;;;;;1.00;1.00;;;;;;;;5112267;28;9351;-75
2023/09/20 02:21:45;;;;;;;;;1.00;0.00;;;;;;;;5117769;27;8796;-74
2023/09/20 02:24:10;;;;;;;;;0.00;0.00;;;;;;;;5123358;27;9357;-75
2023/09/20 02:26:36;;;;;;;;;0.00;0.00;;;;;;;;5122796;27;8775;-74
2023/09/20 02:29:02;;;;;;;;;0.00;0.00;;;;;;;;5127687;27;8897;-74
2023/09/20 02:31:27;;;;;;;;;0.00;0.00;;;;;;;;5143797;27;9308;-75
2023/09/20 02:33:55;;;;;;;;;0.00;0.00;;;;;;;;5141800;27;8815;-74
2023/09/20 02:36:20;;;;;;;;;2.00;0.00;;;;;;;;5143622;27;8761;-74
2023/09/20 02:38:45;;;;;;;;;1.00;1.00;;;;;;;;5121863;27;9420;-75
2023/09/20 02:41:10;;;;;;;;;1.67;0.33;;;;;;;;5121374;27;8793;-75
2023/09/20 02:43:38;;;;;;;;;0.00;0.00;;;;;;;;5115395;27;8770;-73
2023/09/20 02:46:05;;;;;;;;;2.33;1.00;;;;;;;;5122727;27;8711;-75
2023/09/20 02:48:31;;;;;;;;;1.00;1.00;;;;;;;;5124376;27;9545;-75
2023/09/20 02:50:58;;;;;;;;;0.00;0.00;;;;;;;;5123088;27;9351;-74
2023/09/20 02:53:24;;;;;;;;;0.75;0.00;;;;;;;;5131399;27;8797;-75
2023/09/20 02:55:50;;;;;;;;;0.00;0.00;;;;;;;;5129296;27;9750;-74
2023/09/20 02:58:15;;;;;;;;;0.00;0.00;;;;;;;;5133288;27;8769;-75
2023/09/20 03:00:46;;;;;;;;;0.00;0.00;;;;;;;;5122771;28;10171;-75
2023/09/20 03:03:15;;;;;;;;;0.00;0.00;;;;;;;;5121452;28;8780;-75
2023/09/20 03:05:40;;;;;;;;;3.00;0.00;;;;;;;;5122967;27;9439;-76
2023/09/20 03:08:11;;;;;;;;;1.00;0.00;;;;;;;;5122790;27;9466;-75
2023/09/20 03:10:38;;;;;;;;;0.33;0.00;;;;;;;;5122496;27;8783;-75
2023/09/20 03:13:05;;;;;;;;;0.00;0.00;;;;;;;;5122750;27;9445;-76
2023/09/20 03:15:32;;;;;;;;;0.00;0.00;;;;;;;;5127288;27;9644;-75
2023/09/20 03:18:05;;;;;;;;;1.00;0.00;;;;;;;;5143293;27;10349;-76
2023/09/20 03:20:33;;;;;;;;;0.00;0.00;;;;;;;;5132607;27;9499;-75
2023/09/20 03:22:59;;;;;;;;;1.00;0.00;;;;;;;;5122865;28;9412;-75
2023/09/20 03:25:28;;;;;;;;;0.00;0.00;;;;;;;;5121987;28;9562;-75
2023/09/20 03:27:53;;;;;;;;;0.00;0.00;;;;;;;;5122826;27;10005;-75
2023/09/20 03:30:20;;;;;;;;;0.00;0.00;;;;;;;;5120942;28;9537;-75
2023/09/20 03:32:46;;;;;;;;;0.00;0.00;;;;;;;;5124902;28;8729;-76
2023/09/20 03:35:12;;;;;;;;;0.00;0.00;;;;;;;;5126408;27;10153;-75
2023/09/20 03:37:38;;;;;;;;;0.00;0.00;;;;;;;;5132549;27;9313;-76
2023/09/20 03:40:06;;;;;;;;;0.00;0.00;;;;;;;;5126642;27;9532;-75
2023/09/20 03:42:31;;;;;;;;;1.75;0.00;;;;;;;;5133660;27;9706;-76
2023/09/20 03:44:56;;;;;;;;;0.33;0.33;;;;;;;;5146561;27;9685;-75
2023/09/20 03:47:22;;;;;;;;;0.00;0.00;;;;;;;;5145703;27;8780;-76
2023/09/20 03:49:51;;;;;;;;;0.00;0.00;;;;;;;;5132402;27;9582;-76
2023/09/20 03:52:16;;;;;;;;;1.00;0.00;;;;;;;;5146818;27;8872;-75
2023/09/20 03:54:41;;;;;;;;;0.00;0.00;;;;;;;;5126672;27;9640;-75
2023/09/20 03:57:07;;;;;;;;;0.00;0.00;;;;;;;;5125973;27;8779;-75
2023/09/20 03:59:33;;;;;;;;;1.75;0.00;;;;;;;;5125216;27;8735;-75
2023/09/20 04:01:58;;;;;;;;;0.00;0.00;;;;;;;;5132056;27;9641;-76
2023/09/20 04:04:23;;;;;;;;;1.67;0.67;;;;;;;;5124501;28;10025;-75
2023/09/20 04:06:49;;;;;;;;;0.00;0.00;;;;;;;;5108758;27;8821;-75
2023/09/20 04:09:14;;;;;;;;;1.00;1.00;;;;;;;;5105242;28;8797;-75
2023/09/20 04:11:40;;;;;;;;;2.00;0.00;;;;;;;;5115288;27;8825;-76
2023/09/20 04:14:09;;;;;;;;;0.00;0.00;;;;;;;;5146029;27;8769;-75
2023/09/20 04:16:40;;;;;;;;;1.00;0.00;;;;;;;;5138388;27;9506;-75
2023/09/20 04:19:06;;;;;;;;;0.00;0.00;;;;;;;;5125483;27;9400;-76
2023/09/20 04:21:31;;;;;;;;;0.00;0.00;;;;;;;;5138014;27;9208;-76
2023/09/20 04:23:56;;;;;;;;;0.00;0.00;;;;;;;;5135422;27;10324;-75
2023/09/20 04:26:22;;;;;;;;;2.00;0.00;;;;;;;;5124044;27;9056;-76
2023/09/20 04:28:48;;;;;;;;;0.50;0.50;;;;;;;;5143314;27;8805;-75
2023/09/20 04:31:14;;;;;;;;;0.33;0.33;;;;;;;;5144682;27;8963;-76
2023/09/20 04:33:39;;;;;;;;;1.00;1.00;;;;;;;;5144396;27;10069;-76
2023/09/20 04:36:04;;;;;;;;;0.00;0.00;;;;;;;;5145890;27;8780;-75
2023/09/20 04:38:30;;;;;;;;;0.00;0.00;;;;;;;;5133058;27;8848;-76
2023/09/20 04:40:56;;;;;;;;;0.00;0.00;;;;;;;;5122990;28;9109;-75
2023/09/20 04:43:21;;;;;;;;;3.50;1.75;;;;;;;;5124706;27;8763;-75
2023/09/20 04:45:46;;;;;;;;;0.00;0.00;;;;;;;;5125183;27;8856;-76
2023/09/20 04:48:13;;;;;;;;;0.00;0.00;;;;;;;;5124759;27;8815;-75
2023/09/20 04:50:38;;;;;;;;;0.00;0.00;;;;;;;;5129797;27;8878;-75
2023/09/20 04:53:03;;;;;;;;;0.00;0.00;;;;;;;;5129504;27;10211;-75
2023/09/20 04:55:29;;;;;;;;;0.00;0.00;;;;;;;;5123800;28;8791;-76
2023/09/20 04:57:55;;;;;;;;;0.67;0.00;;;;;;;;5124659;27;8761;-76
2023/09/20 05:00:26;;;;;;;;;1.00;0.00;;;;;;;;5124860;27;9837;-75
2023/09/20 05:02:52;;;;;;;;;1.00;0.00;;;;;;;;5124879;27;9752;-75
2023/09/20 05:05:17;;;;;;;;;0.00;0.00;;;;;;;;5144423;27;9519;-75
2023/09/20 05:07:43;;;;;;;;;0.00;0.00;;;;;;;;5144213;27;9496;-75
2023/09/20 05:10:08;;;;;;;;;0.00;0.00;;;;;;;;5139302;27;8764;-75
2023/09/20 05:12:34;;;;;;;;;1.00;0.00;;;;;;;;5124389;27;9579;-77
2023/09/20 05:14:59;;;;;;;;;0.00;0.00;;;;;;;;5120654;27;8830;-77
2023/09/20 05:17:24;;;;;;;;;0.33;0.00;;;;;;;;5124170;27;8891;-77
2023/09/20 05:19:49;;;;;;;;;0.00;0.00;;;;;;;;5122482;28;8817;-77
2023/09/20 05:22:15;;;;;;;;;1.33;0.33;;;;;;;;5126993;27;8800;-79
2023/09/20 05:24:40;;;;;;;;;1.33;0.00;;;;;;;;5128923;27;8888;-76
2023/09/20 05:27:06;;;;;;;;;0.00;0.00;;;;;;;;5125822;27;8786;-73
2023/09/20 05:29:32;;;;;;;;;2.00;0.00;;;;;;;;5120477;27;8872;-75
2023/09/20 05:31:57;;;;;;;;;1.00;0.00;;;;;;;;5129396;27;9606;-76
2023/09/20 05:34:26;;;;;;;;;0.25;0.00;;;;;;;;5123773;27;9517;-77
2023/09/20 05:36:53;;;;;;;;;0.00;0.00;;;;;;;;5122788;27;8814;-77
2023/09/20 05:39:18;;;;;;;;;1.00;0.00;;;;;;;;5122597;27;9204;-77
2023/09/20 05:41:43;;;;;;;;;2.75;1.00;;;;;;;;5124269;27;10304;-77
2023/09/20 05:44:10;;;;;;;;;1.00;0.00;;;;;;;;5123596;27;8814;-77
2023/09/20 05:46:35;;;;;;;;;0.50;0.00;;;;;;;;5123095;27;8835;-77
2023/09/20 05:49:00;;;;;;;;;1.25;0.50;;;;;;;;5123857;27;9477;-79
2023/09/20 05:51:26;;;;;;;;;0.00;0.00;;;;;;;;5125493;27;8917;-78
2023/09/20 05:53:51;;;;;;;;;0.00;0.00;;;;;;;;5139437;27;8815;-79
2023/09/20 05:56:18;;;;;;;;;0.00;0.00;;;;;;;;5123432;27;8800;-79
2023/09/20 05:58:44;;;;;;;;;1.00;0.00;;;;;;;;5126460;27;8799;-76
2023/09/20 06:01:10;;;;;;;;;0.00;0.00;;;;;;;;5121555;27;10383;-76
2023/09/20 06:03:37;;;;;;;;;1.00;0.00;;;;;;;;5122305;27;9668;-76
2023/09/20 06:06:07;;;;;;;;;0.00;0.00;;;;;;;;5124328;27;8791;-76
2023/09/20 06:08:34;;;;;;;;;0.00;0.00;;;;;;;;5120299;28;9578;-76
2023/09/20 06:11:04;;;;;;;;;0.00;0.00;;;;;;;;5122368;27;9587;-76
2023/09/20 06:13:29;;;;;;;;;0.50;0.50;;;;;;;;5123771;27;9588;-76
2023/09/20 06:15:54;;;;;;;;;0.00;0.00;;;;;;;;5123512;27;9730;-81
2023/09/20 06:18:20;;;;;;;;;1.00;0.25;;;;;;;;5130661;27;8810;-80
2023/09/20 06:20:45;;;;;;;;;0.25;0.00;;;;;;;;5116943;27;8800;-80
2023/09/20 06:23:12;;;;;;;;;0.00;0.00;;;;;;;;5129400;27;8814;-80
2023/09/20 06:25:38;;;;;;;;;1.25;0.00;;;;;;;;5122527;27;8865;-78
2023/09/20 06:28:03;;;;;;;;;0.00;0.00;;;;;;;;5136568;27;9631;-79
2023/09/20 06:30:29;;;;;;;;;2.00;0.00;;;;;;;;5142076;27;10031;-80
2023/09/20 06:32:54;;;;;;;;;2.00;2.00;;;;;;;;5139525;27;8826;-79
2023/09/20 06:35:21;;;;;;;;;1.00;1.00;;;;;;;;5143876;27;8804;-79
2023/09/20 06:37:47;;;;;;;;;1.00;1.00;;;;;;;;5141711;27;8873;-79
2023/09/20 06:40:33;;;;;;;;;0.25;0.25;;;;;;;;5121091;28;10242;-77
2023/09/20 06:42:58;;;;;;;;;1.50;1.50;;;;;;;;5119315;28;10227;-77
2023/09/20 06:45:24;;;;;;;;;1.75;0.75;;;;;;;;5122483;27;9695;-77
2023/09/20 06:47:50;;;;;;;;;1.00;1.00;;;;;;;;5121204;27;8784;-77
2023/09/20 06:50:17;;;;;;;;;1.00;1.00;;;;;;;;5130921;27;8753;-78
2023/09/20 06:52:43;;;;;;;;;2.50;2.00;;;;;;;;5126028;27;10538;-77
2023/09/20 06:55:11;;;;;;;;;1.00;1.00;;;;;;;;5122466;27;9549;-77
2023/09/20 06:57:37;;;;;;;;;2.00;1.00;;;;;;;;5136586;27;8768;-77
2023/09/20 07:00:15;;;;;;;;;3.00;1.00;;;;;;;;5143207;27;9754;-77
2023/09/20 07:02:41;;;;;;;;;3.00;2.00;;;;;;;;5126047;27;8852;-77
2023/09/20 07:05:06;;;;;;;;;1.75;0.75;;;;;;;;5123134;28;9474;-77
2023/09/20 07:07:31;;;;;;;;;1.67;0.00;;;;;;;;5125456;27;8818;-77
2023/09/20 07:09:59;;;;;;;;;1.00;1.00;;;;;;;;5130160;27;8805;-77
2023/09/20 07:12:25;;;;;;;;;0.25;0.25;;;;;;;;5127450;27;8762;-77
2023/09/20 07:14:51;;;;;;;;;2.50;1.00;;;;;;;;5133763;27;9597;-77
2023/09/20 07:17:26;;;;;;;;;2.00;2.00;;;;;;;;5145554;27;8761;-77
2023/09/20 07:19:52;;;;;;;;;1.25;1.25;;;;;;;;5132429;27;9453;-77
2023/09/20 07:22:17;;;;;;;;;1.00;1.00;;;;;;;;5117521;27;9672;-77
2023/09/20 07:24:45;;;;;;;;;1.75;1.75;;;;;;;;5124894;28;8788;-77
2023/09/20 07:27:11;;;;;;;;;2.50;2.00;;;;;;;;5139998;27;8778;-77
2023/09/20 07:29:37;;;;;;;;;0.00;0.00;;;;;;;;5146666;27;9648;-77
2023/09/20 07:32:03;;;;;;;;;1.75;1.00;;;;;;;;5145611;27;8824;-77
2023/09/20 07:34:32;;;;;;;;;1.00;1.00;;;;;;;;5143455;27;8890;-77
2023/09/20 07:36:58;;;;;;;;;1.50;1.50;;;;;;;;5128155;27;9534;-77
2023/09/20 07:39:23;;;;;;;;;0.00;0.00;;;;;;;;5146882;27;10670;-77
2023/09/20 07:41:52;;;;;;;;;1.75;1.75;;;;;;;;5137147;27;8903;-77
2023/09/20 07:44:17;;;;;;;;;1.25;1.00;;;;;;;;5146693;27;8744;-77
2023/09/20 07:46:43;;;;;;;;;1.33;1.00;;;;;;;;5146005;27;9508;-77
2023/09/20 07:49:12;;;;;;;;;1.67;1.67;;;;;;;;5132494;27;8892;-77
2023/09/20 07:51:40;;;;;;;;;1.00;1.00;;;;;;;;5125681;27;8708;-77
2023/09/20 07:54:09;;;;;;;;;2.67;1.67;;;;;;;;5135665;27;9322;-77
2023/09/20 07:56:34;;;;;;;;;1.00;1.00;;;;;;;;5138306;27;9427;-77
2023/09/20 07:59:00;;;;;;;;;1.00;1.00;;;;;;;;5132331;27;9496;-77
2023/09/20 08:01:29;;;;;;;;;1.00;1.00;;;;;;;;5125480;27;8777;-77
2023/09/20 08:03:58;;;;;;;;;2.33;1.00;;;;;;;;5111350;27;11336;-77
2023/09/20 08:06:24;;;;;;;;;2.00;1.00;;;;;;;;5124758;27;9519;-77
2023/09/20 08:08:49;;;;;;;;;2.00;2.00;;;;;;;;5145861;27;9358;-77
2023/09/20 08:11:15;;;;;;;;;3.00;2.00;;;;;;;;5145603;27;9533;-77
2023/09/20 08:13:41;;;;;;;;;2.00;2.00;;;;;;;;5146618;27;8797;-77
2023/09/20 08:16:09;;;;;;;;;3.67;1.00;;;;;;;;5146067;27;8772;-77
2023/09/20 08:21:19;;;;;;;;;2.00;2.00;;;;;;;;5130827;27;9431;-78
2023/09/20 08:59:48;;;;;;;;;0.67;0.67;;;;;;;;5124793;27;9487;-79
2023/09/20 09:02:15;;;;;;;;;1.00;1.00;;;;;;;;5123844;27;9349;-77
2023/09/20 09:04:47;;;;;;;;;3.00;2.00;;;;;;;;5124458;27;9131;-77
2023/09/20 09:07:13;;;;;;;;;2.67;1.00;;;;;;;;5124368;27;9334;-77
2023/09/20 09:09:38;;;;;;;;;1.67;1.00;;;;;;;;5139573;27;9108;-77
2023/09/20 09:12:04;;;;;;;;;3.67;1.67;;;;;;;;5139247;27;8816;-77
2023/09/20 09:14:30;;;;;;;;;1.00;1.00;;;;;;;;5123465;27;8811;-77
2023/09/20 09:17:02;;;;;;;;;1.00;1.00;;;;;;;;5130104;27;8780;-78
2023/09/20 09:19:27;;;;;;;;;3.00;2.00;;;;;;;;5124585;28;8698;-77
2023/09/20 09:21:52;;;;;;;;;1.00;1.00;;;;;;;;5128624;27;9379;-78
2023/09/20 09:24:18;;;;;;;;;4.33;1.00;;;;;;;;5144364;27;8816;-77
2023/09/20 09:26:45;;;;;;;;;3.00;1.33;;;;;;;;5130074;27;8816;-77
2023/09/20 09:29:16;;;;;;;;;3.67;2.00;;;;;;;;5123904;28;8848;-77
2023/09/20 09:31:46;;;;;;;;;6.00;1.33;;;;;;;;5130832;27;10260;-77
2023/09/20 09:34:12;;;;;;;;;1.00;1.00;;;;;;;;5125948;27;9396;-77
2023/09/20 09:36:40;;;;;;;;;5.33;1.00;;;;;;;;5124456;27;9258;-77
2023/09/20 09:39:18;;;;;;;;;3.33;2.00;;;;;;;;5122538;28;8893;-77
2023/09/20 09:41:47;;;;;;;;;1.00;1.00;;;;;;;;5123967;27;9453;-77
2023/09/20 09:44:13;;;;;;;;;2.67;1.00;;;;;;;;5124044;27;9315;-77
2023/09/20 09:46:39;;;;;;;;;0.00;0.00;;;;;;;;5139155;27;9117;-77
2023/09/20 09:49:11;;;;;;;;;2.00;2.00;;;;;;;;5127386;27;9047;-77
2023/09/20 09:51:45;;;;;;;;;1.33;1.33;;;;;;;;5132024;27;10042;-77
2023/09/20 09:54:11;;;;;;;;;0.67;0.67;;;;;;;;5126218;27;9130;-77
2023/09/20 09:56:37;;;;;;;;;0.00;0.00;;;;;;;;5124231;27;9156;-77
2023/09/20 09:59:03;;;;;;;;;1.67;1.00;;;;;;;;5127342;27;8801;-77
2023/09/20 10:01:29;;;;;;;;;0.67;0.67;;;;;;;;5122072;27;10045;-75
2023/09/20 10:03:56;;;;;;;;;2.00;2.00;;;;;;;;5126307;27;8801;-82
2023/09/20 10:06:25;;;;;;;;;1.00;1.00;;;;;;;;5129266;27;8799;-76
2023/09/20 10:08:54;;;;;;;;;2.00;1.00;;;;;;;;5125093;27;8958;-79
2023/09/20 10:11:23;;;;;;;;;1.00;1.00;;;;;;;;5124315;27;9486;-78
2023/09/20 10:13:50;;;;;;;;;1.00;1.00;;;;;;;;5130253;27;9110;-81
2023/09/20 10:16:18;;;;;;;;;3.33;0.00;;;;;;;;5123385;27;9136;-82
2023/09/20 10:19:03;;;;;;;;;2.67;2.00;;;;;;;;5125793;27;8889;-78
2023/09/20 10:21:30;;;;;;;;;5.33;0.67;;;;;;;;5119473;28;9366;-78
2023/09/20 10:23:57;;;;;;;;;1.33;1.33;;;;;;;;5124366;27;9215;-77
2023/09/20 10:26:23;;;;;;;;;2.00;2.00;;;;;;;;5123807;27;9236;-77
2023/09/20 10:28:51;;;;;;;;;5.00;1.00;;;;;;;;5126167;27;9283;-77
2023/09/20 10:31:17;;;;;;;;;0.33;0.00;;;;;;;;5122470;27;8841;-80
2023/09/20 10:33:52;;;;;;;;;2.00;2.00;;;;;;;;5124248;27;9229;-79
2023/09/20 10:36:21;;;;;;;;;1.00;1.00;;;;;;;;5125385;27;9280;-79
2023/09/20 10:38:46;;;;;;;;;1.67;1.67;;;;;;;;5123860;27;9068;-78
2023/09/20 10:41:12;;;;;;;;;0.00;0.00;;;;;;;;5121667;27;9210;-78
2023/09/20 10:43:38;;;;;;;;;1.67;1.67;;;;;;;;5122696;27;8909;-79
2023/09/20 10:46:14;;;;;;;;;3.00;1.00;;;;;;;;5122577;27;8901;-78
2023/09/20 10:48:44;;;;;;;;;1.00;1.00;;;;;;;;5129926;27;9137;-78
2023/09/20 10:51:09;;;;;;;;;0.25;0.00;;;;;;;;5142328;27;10044;-81
2023/09/20 10:53:47;;;;;;;;;3.00;2.00;;;;;;;;5132653;27;9671;-87
2023/09/20 10:56:32;;;;;;;;;1.00;1.00;;;;;;;;5129872;27;8778;-86
2023/09/20 10:58:59;;;;;;;;;2.33;2.33;;;;;;;;5126673;27;8952;-82
2023/09/20 11:01:25;;;;;;;;;3.33;1.00;;;;;;;;5132111;27;9293;-83
2023/09/20 11:03:51;;;;;;;;;0.67;0.67;;;;;;;;5132647;27;9229;-82
2023/09/20 11:06:16;;;;;;;;;0.00;0.00;;;;;;;;5131816;27;8792;-82
2023/09/20 11:08:43;;;;;;;;;1.00;1.00;;;;;;;;5131866;27;8963;-82
2023/09/20 11:11:14;;;;;;;;;2.00;2.00;;;;;;;;5128643;27;10194;-82
2023/09/20 11:13:42;;;;;;;;;0.67;0.67;;;;;;;;5136896;27;8912;-86
2023/09/20 11:16:08;;;;;;;;;2.50;1.50;;;;;;;;5123402;27;8839;-88
2023/09/20 11:18:34;;;;;;;;;1.33;1.33;;;;;;;;5140921;27;8760;-82
2023/09/20 11:21:00;;;;;;;;;2.67;0.67;;;;;;;;5132667;27;9936;-81
2023/09/20 11:23:25;;;;;;;;;0.00;0.00;;;;;;;;5123006;28;8710;-84
2023/09/20 11:25:51;;;;;;;;;0.67;0.67;;;;;;;;5122331;27;8902;-84
2023/09/20 11:28:17;;;;;;;;;1.33;0.33;;;;;;;;5122006;27;8776;-86
2023/09/20 11:30:43;;;;;;;;;1.50;0.50;;;;;;;;5122451;27;8737;-84
2023/09/20 11:33:24;;;;;;;;;1.00;1.00;;;;;;;;5120104;28;8824;-82
2023/09/20 11:35:49;;;;;;;;;2.00;2.00;;;;;;;;5122837;28;8773;-84
2023/09/20 11:38:15;;;;;;;;;0.33;0.00;;;;;;;;5122976;27;8777;-84
2023/09/20 11:40:43;;;;;;;;;0.50;0.50;;;;;;;;5121440;28;10145;-79
2023/09/20 11:43:14;;;;;;;;;1.75;1.00;;;;;;;;5120189;28;8804;-80
2023/09/20 11:45:42;;;;;;;;;2.75;1.75;;;;;;;;5134882;27;8908;-79
2023/09/20 11:48:13;;;;;;;;;0.67;0.67;;;;;;;;5137813;27;8755;-80
2023/09/20 11:50:45;;;;;;;;;0.50;0.50;;;;;;;;5121715;27;8825;-80
2023/09/20 11:53:14;;;;;;;;;0.25;0.25;;;;;;;;5142639;27;8753;-80
2023/09/20 11:55:43;;;;;;;;;0.00;0.00;;;;;;;;5146132;27;8725;-80
2023/09/20 11:58:09;;;;;;;;;2.00;1.00;;;;;;;;5129074;27;8784;-77
2023/09/20 12:00:35;;;;;;;;;4.25;0.75;;;;;;;;5130516;27;10347;-85
2023/09/20 12:03:00;;;;;;;;;1.33;0.33;;;;;;;;5135043;27;8875;-80
2023/09/20 12:05:25;;;;;;;;;2.00;2.00;;;;;;;;5130017;27;8877;-80
2023/09/20 12:07:58;;;;;;;;;1.00;1.00;;;;;;;;5133468;27;8781;-83
2023/09/20 12:10:27;;;;;;;;;2.00;1.00;;;;;;;;5133661;27;8735;-83
2023/09/20 12:12:52;;;;;;;;;1.50;1.50;;;;;;;;5138023;27;8780;-83
2023/09/20 12:15:21;;;;;;;;;2.00;2.00;;;;;;;;5138187;27;8903;-83
2023/09/20 12:17:47;;;;;;;;;1.00;1.00;;;;;;;;5136747;27;8794;-80
2023/09/20 12:20:15;;;;;;;;;3.50;1.25;;;;;;;;5136076;27;8769;-80
2023/09/20 12:22:42;;;;;;;;;2.00;2.00;;;;;;;;5127399;27;8788;-82
2023/09/20 12:25:08;;;;;;;;;1.00;1.00;;;;;;;;5130329;27;8765;-77
2023/09/20 12:27:33;;;;;;;;;1.33;1.33;;;;;;;;5120297;27;8843;-76
2023/09/20 12:30:00;;;;;;;;;3.67;3.00;;;;;;;;5119148;27;8845;-75
2023/09/20 12:32:25;;;;;;;;;3.50;1.75;;;;;;;;5137377;27;8785;-76
2023/09/20 12:34:55;;;;;;;;;1.00;1.00;;;;;;;;5142909;27;8977;-76
2023/09/20 12:37:20;;;;;;;;;2.00;2.00;;;;;;;;5144930;27;8788;-83
2023/09/20 12:39:46;;;;;;;;;2.00;1.00;;;;;;;;5134021;27;8865;-80
2023/09/20 12:42:12;;;;;;;;;1.50;1.00;;;;;;;;5135967;27;8750;-80
2023/09/20 12:44:37;;;;;;;;;3.00;0.33;;;;;;;;5126143;27;8904;-79
2023/09/20 12:47:03;;;;;;;;;1.00;1.00;;;;;;;;5138335;27;8828;-82
2023/09/20 12:49:28;;;;;;;;;0.00;0.00;;;;;;;;5131728;27;8798;-78
2023/09/20 12:51:53;;;;;;;;;2.00;1.00;;;;;;;;5130860;27;8842;-79
2023/09/20 12:54:18;;;;;;;;;1.00;1.00;;;;;;;;5131959;27;8799;-79
2023/09/20 12:56:44;;;;;;;;;0.33;0.33;;;;;;;;5127604;27;8941;-80
2023/09/20 12:59:11;;;;;;;;;2.33;2.00;;;;;;;;5132750;27;8811;-80
2023/09/20 13:01:38;;;;;;;;;2.00;1.25;;;;;;;;5132355;27;8808;-81
2023/09/20 13:04:03;;;;;;;;;2.00;0.00;;;;;;;;5127052;27;8815;-80
2023/09/20 13:06:28;;;;;;;;;1.00;1.00;;;;;;;;5133045;27;8892;-82
2023/09/20 13:08:55;;;;;;;;;1.67;0.33;;;;;;;;5137335;27;8829;-79
2023/09/20 13:11:22;;;;;;;;;3.00;1.75;;;;;;;;5131057;27;8789;-80
2023/09/20 13:13:47;;;;;;;;;1.50;0.75;;;;;;;;5136775;27;8869;-86
2023/09/20 13:16:13;;;;;;;;;0.33;0.33;;;;;;;;5134435;27;8795;-90
2023/09/20 13:18:38;;;;;;;;;1.00;0.25;;;;;;;;5131827;27;8797;-88
2023/09/20 13:21:04;;;;;;;;;2.00;1.00;;;;;;;;5135211;27;8835;-89
2023/09/20 13:23:30;;;;;;;;;0.67;0.67;;;;;;;;5133697;27;8806;-89
2023/09/20 13:25:55;;;;;;;;;2.33;1.00;;;;;;;;5129762;27;9196;-88
2023/09/20 13:28:21;;;;;;;;;1.67;0.00;;;;;;;;5132342;27;8800;-88
2023/09/20 13:30:46;;;;;;;;;1.33;0.00;;;;;;;;5134319;27;8785;-89
2023/09/20 13:33:12;;;;;;;;;1.00;1.00;;;;;;;;5140371;27;9585;-89
2023/09/20 13:35:39;;;;;;;;;1.00;1.00;;;;;;;;5144923;27;8765;-88
2023/09/20 13:38:04;;;;;;;;;0.00;0.00;;;;;;;;5133302;27;8726;-89
2023/09/20 13:40:30;;;;;;;;;4.00;1.00;;;;;;;;5122279;28;8789;-89
2023/09/20 13:42:57;;;;;;;;;1.33;1.33;;;;;;;;5126897;27;8855;-88
2023/09/20 13:45:25;;;;;;;;;0.75;0.50;;;;;;;;5139527;27;8729;-88
2023/09/20 13:47:51;;;;;;;;;2.75;1.25;;;;;;;;5131145;27;11038;-88
2023/09/20 13:50:16;;;;;;;;;0.67;0.67;;;;;;;;5131383;27;8872;-84
2023/09/20 13:52:42;;;;;;;;;0.00;0.00;;;;;;;;5139527;27;8887;-87
2023/09/20 13:55:17;;;;;;;;;4.00;1.00;;;;;;;;5128725;27;9680;-83
2023/09/20 13:57:48;;;;;;;;;1.50;0.75;;;;;;;;5131948;27;10869;-83
2023/09/20 14:00:14;;;;;;;;;0.50;0.50;;;;;;;;5129497;27;8968;-83
2023/09/20 14:02:40;;;;;;;;;2.00;0.25;;;;;;;;5132050;27;8817;-82
2023/09/20 14:05:15;;;;;;;;;1.67;1.00;;;;;;;;5134145;27;8901;-83
2023/09/20 14:07:41;;;;;;;;;0.75;0.75;;;;;;;;5129277;27;8882;-83
2023/09/20 14:10:07;;;;;;;;;1.75;0.75;;;;;;;;5130937;27;8719;-82
2023/09/20 14:12:33;;;;;;;;;2.33;1.00;;;;;;;;5127825;27;8793;-83
2023/09/20 14:14:59;;;;;;;;;1.00;1.00;;;;;;;;5127241;27;8808;-83
2023/09/20 14:17:24;;;;;;;;;2.67;1.00;;;;;;;;5126700;27;10128;-83
2023/09/20 14:19:51;;;;;;;;;2.67;1.00;;;;;;;;5130099;27;8815;-83
2023/09/20 14:22:16;;;;;;;;;1.25;1.00;;;;;;;;5123821;27;8814;-83
2023/09/20 14:24:41;;;;;;;;;0.00;0.00;;;;;;;;5126501;27;8815;-82
2023/09/20 14:27:06;;;;;;;;;1.00;1.00;;;;;;;;5125553;27;8809;-82
2023/09/20 14:29:32;;;;;;;;;1.00;1.00;;;;;;;;5132631;27;8942;-83
2023/09/20 14:31:58;;;;;;;;;0.00;0.00;;;;;;;;5127306;27;8904;-83
2023/09/20 14:34:23;;;;;;;;;1.00;0.00;;;;;;;;5129836;27;8761;-83
2023/09/20 14:36:49;;;;;;;;;2.00;1.00;;;;;;;;5142891;27;8823;-83
2023/09/20 14:39:14;;;;;;;;;0.67;0.00;;;;;;;;5143002;27;8828;-84
2023/09/20 14:41:39;;;;;;;;;1.00;0.67;;;;;;;;5137836;27;9035;-83
2023/09/20 14:44:05;;;;;;;;;1.00;1.00;;;;;;;;5118631;27;9552;-83
2023/09/20 14:46:33;;;;;;;;;1.00;1.00;;;;;;;;5123105;27;8807;-80
2023/09/20 14:48:58;;;;;;;;;2.00;0.75;;;;;;;;5119180;27;8835;-76
2023/09/20 14:51:25;;;;;;;;;1.00;1.00;;;;;;;;5114728;27;8781;-75
2023/09/20 14:53:50;;;;;;;;;0.75;0.75;;;;;;;;5116784;27;8747;-75
2023/09/20 14:56:16;;;;;;;;;1.33;1.33;;;;;;;;5112939;27;10352;-75
2023/09/20 14:58:41;;;;;;;;;0.33;0.33;;;;;;;;5113075;27;8897;-76
2023/09/20 15:01:11;;;;;;;;;1.33;0.67;;;;;;;;5109989;28;8919;-78
2023/09/20 15:03:37;;;;;;;;;1.75;1.75;;;;;;;;5110685;27;8766;-77
2023/09/20 15:06:04;;;;;;;;;0.00;0.00;;;;;;;;5113332;27;8848;-77
2023/09/20 15:08:29;;;;;;;;;0.75;0.75;;;;;;;;5118075;27;8796;-76
2023/09/20 15:10:56;;;;;;;;;1.00;1.00;;;;;;;;5112392;27;8824;-82
2023/09/20 15:13:22;;;;;;;;;1.00;0.75;;;;;;;;5107782;27;8750;-82
2023/09/20 15:15:47;;;;;;;;;1.00;1.00;;;;;;;;5111824;28;9999;-85
2023/09/20 15:18:12;;;;;;;;;1.00;1.00;;;;;;;;5114123;27;8790;-82
2023/09/20 15:20:41;;;;;;;;;1.00;0.00;;;;;;;;5113531;27;8790;-82
2023/09/20 15:23:06;;;;;;;;;0.50;0.50;;;;;;;;5110361;27;8759;-82
2023/09/20 15:25:31;;;;;;;;;0.33;0.33;;;;;;;;5125358;27;10043;-82
2023/09/20 15:27:57;;;;;;;;;0.67;0.67;;;;;;;;5120475;27;8945;-85
2023/09/20 15:30:23;;;;;;;;;5.00;2.00;;;;;;;;5136645;27;9985;-84